createdAt,value
2019-04-01T00:00:52.224Z,4.20
2019-04-01T00:03:21.224Z,4.20
2019-04-01T00:05:49.963Z,4.20
2019-04-01T00:08:18.997Z,4.10
2019-04-01T00:10:47.786Z,4.20
2019-04-01T00:13:16.959Z,4.20
2019-04-01T00:15:45.702Z,4.10
2019-04-01T00:18:14.474Z,4.10
2019-04-01T00:20:43.248Z,4.10
2019-04-01T00:23:12.411Z,4.10
2019-04-01T00:28:33.387Z,4.00
2019-04-01T00:31:14.395Z,3.90
2019-04-01T00:33:55.330Z,4.00
2019-04-01T00:36:24.111Z,4.00
2019-04-01T00:38:52.913Z,3.90
2019-04-01T00:41:21.687Z,4.00
2019-04-01T00:43:55.666Z,4.00
2019-04-01T00:46:24.830Z,3.90
2019-04-01T00:48:53.871Z,4.00
2019-04-01T00:51:22.744Z,4.00
2019-04-01T00:53:51.537Z,4.00
2019-04-01T00:56:20.368Z,4.00
2019-04-01T00:58:49.829Z,4.00
2019-04-01T01:01:18.702Z,4.00
2019-04-01T01:03:47.707Z,4.00
2019-04-01T01:06:16.695Z,4.00
2019-04-01T01:08:45.475Z,3.90
2019-04-01T01:11:14.472Z,3.90
2019-04-01T01:13:43.280Z,3.90
2019-04-01T01:16:12.050Z,3.90
2019-04-01T01:18:41.180Z,3.90
2019-04-01T01:21:10.228Z,3.90
2019-04-01T01:23:39.182Z,3.90
2019-04-01T01:26:07.934Z,3.80
2019-04-01T01:28:36.700Z,3.80
2019-04-01T01:31:05.507Z,3.80
2019-04-01T01:33:34.467Z,3.80
2019-04-01T01:36:03.211Z,3.80
2019-04-01T01:38:32.400Z,3.80
2019-04-01T01:41:01.464Z,3.80
2019-04-01T01:43:30.272Z,3.70
2019-04-01T01:45:59.608Z,3.70
2019-04-01T01:48:28.351Z,3.70
2019-04-01T01:50:57.141Z,3.60
2019-04-01T01:53:26.156Z,3.60
2019-04-01T01:55:54.975Z,3.60
2019-04-01T01:58:23.810Z,3.60
2019-04-01T02:00:54.268Z,3.60
2019-04-01T02:03:23.027Z,3.60
2019-04-01T02:05:51.834Z,3.50
2019-04-01T02:08:20.646Z,3.60
2019-04-01T02:10:49.448Z,3.50
2019-04-01T02:13:20.169Z,3.50
2019-04-01T02:15:49.039Z,3.50
2019-04-01T02:18:17.792Z,3.40
2019-04-01T02:20:46.832Z,3.40
2019-04-01T02:23:15.611Z,3.40
2019-04-01T02:25:44.387Z,3.40
2019-04-01T02:28:13.169Z,3.40
2019-04-01T02:30:42.228Z,3.40
2019-04-01T02:33:11.048Z,3.30
2019-04-01T02:35:39.824Z,3.30
2019-04-01T02:38:08.896Z,3.40
2019-04-01T02:40:37.912Z,3.30
2019-04-01T02:43:06.877Z,3.30
2019-04-01T02:45:35.673Z,3.20
2019-04-01T02:48:04.584Z,3.10
2019-04-01T02:50:33.540Z,3.00
2019-04-01T02:53:02.771Z,2.90
2019-04-01T02:55:31.617Z,2.80
2019-04-01T02:58:00.397Z,2.70
2019-04-01T03:00:29.308Z,2.60
2019-04-01T03:02:58.127Z,2.50
2019-04-01T03:05:27.235Z,2.30
2019-04-01T03:07:56.080Z,2.30
2019-04-01T03:10:24.822Z,2.30
2019-04-01T03:12:53.571Z,2.20
2019-04-01T03:15:22.333Z,2.10
2019-04-01T03:17:51.140Z,2.10
2019-04-01T03:20:19.886Z,2.10
2019-04-01T03:22:48.668Z,2.00
2019-04-01T03:25:18.316Z,1.90
2019-04-01T03:27:47.061Z,1.90
2019-04-01T03:30:15.968Z,1.90
2019-04-01T03:32:45.798Z,1.80
2019-04-01T03:35:15.133Z,1.70
2019-04-01T03:37:44.289Z,1.70
2019-04-01T03:40:13.497Z,1.60
2019-04-01T03:42:42.241Z,1.60
2019-04-01T03:45:11.440Z,1.50
2019-04-01T03:47:40.250Z,1.60
2019-04-01T03:50:09.265Z,1.50
2019-04-01T03:52:38.492Z,1.50
2019-04-01T03:55:07.269Z,1.40
2019-04-01T03:57:36.149Z,1.40
2019-04-01T04:00:05.476Z,1.30
2019-04-01T04:02:34.560Z,1.30
2019-04-01T04:05:03.600Z,1.20
2019-04-01T04:07:32.455Z,1.20
2019-04-01T04:10:01.276Z,1.10
2019-04-01T04:12:30.053Z,1.10
2019-04-01T04:14:58.817Z,1.00
2019-04-01T04:17:27.855Z,1.00
2019-04-01T04:19:56.645Z,0.90
2019-04-01T04:22:25.417Z,0.90
2019-04-01T04:24:54.415Z,0.90
2019-04-01T04:27:23.310Z,0.80
2019-04-01T04:29:52.405Z,0.80
2019-04-01T04:32:21.176Z,0.80
2019-04-01T04:34:49.991Z,0.80
2019-04-01T04:37:18.798Z,0.70
2019-04-01T04:39:47.880Z,0.70
2019-04-01T04:42:16.757Z,0.70
2019-04-01T04:44:45.555Z,0.70
2019-04-01T04:47:14.753Z,0.80
2019-04-01T04:49:43.679Z,0.70
2019-04-01T04:52:12.663Z,0.70
2019-04-01T04:54:41.418Z,0.70
2019-04-01T04:57:10.891Z,0.70
2019-04-01T04:59:39.627Z,0.70
2019-04-01T05:02:08.376Z,0.70
2019-04-01T05:04:37.162Z,0.70
2019-04-01T05:07:06.043Z,0.60
2019-04-01T05:09:34.803Z,0.60
2019-04-01T05:12:03.568Z,0.60
2019-04-01T05:14:32.658Z,0.60
2019-04-01T05:17:01.816Z,0.70
2019-04-01T05:19:31.271Z,0.70
2019-04-01T05:22:00.232Z,0.70
2019-04-01T05:24:30.463Z,0.70
2019-04-01T05:27:00.863Z,0.80
2019-04-01T05:29:31.064Z,0.80
2019-04-01T05:32:01.567Z,0.90
2019-04-01T05:34:32.070Z,1.00
2019-04-01T05:37:01.214Z,1.10
2019-04-01T05:39:30.024Z,1.20
2019-04-01T05:41:59.412Z,1.30
2019-04-01T05:44:28.577Z,1.40
2019-04-01T05:46:57.551Z,1.50
2019-04-01T05:49:27.806Z,1.60
2019-04-01T05:51:56.935Z,1.70
2019-04-01T05:54:25.871Z,1.80
2019-04-01T05:56:54.897Z,1.90
2019-04-01T05:59:23.860Z,2.00
2019-04-01T06:01:53.042Z,2.00
2019-04-01T06:04:21.927Z,2.10
2019-04-01T06:06:51.052Z,2.30
2019-04-01T06:09:19.894Z,2.50
2019-04-01T06:11:48.943Z,2.60
2019-04-01T06:14:17.848Z,2.80
2019-04-01T06:16:46.667Z,3.00
2019-04-01T06:19:15.616Z,3.20
2019-04-01T06:21:44.812Z,3.40
2019-04-01T06:24:13.647Z,3.60
2019-04-01T06:26:42.778Z,3.80
2019-04-01T06:29:11.592Z,3.90
2019-04-01T06:31:40.527Z,4.20
2019-04-01T06:34:09.406Z,4.50
2019-04-01T06:36:39.016Z,4.70
2019-04-01T06:39:08.066Z,4.90
2019-04-01T06:41:36.984Z,5.00
2019-04-01T06:44:05.924Z,5.30
2019-04-01T06:46:34.786Z,5.50
2019-04-01T06:49:03.995Z,5.70
2019-04-01T06:51:33.277Z,6.10
2019-04-01T06:54:02.131Z,6.90
2019-04-01T06:56:31.503Z,7.50
2019-04-01T06:59:00.325Z,8.60
2019-04-01T07:01:29.372Z,9.80
2019-04-01T07:03:58.514Z,10.40
2019-04-01T07:06:27.580Z,10.60
2019-04-01T07:08:56.431Z,10.80
2019-04-01T07:11:25.401Z,11.40
2019-04-01T07:13:54.833Z,11.50
2019-04-01T07:16:23.886Z,11.30
2019-04-01T07:18:53.025Z,11.50
2019-04-01T07:21:22.244Z,11.60
2019-04-01T07:23:51.368Z,11.90
2019-04-01T07:26:20.475Z,12.90
2019-04-01T07:28:49.290Z,13.20
2019-04-01T07:31:18.317Z,13.60
2019-04-01T07:33:47.322Z,14.20
2019-04-01T07:36:16.402Z,14.30
2019-04-01T07:38:45.511Z,14.70
2019-04-01T07:41:14.681Z,14.50
2019-04-01T07:43:43.692Z,14.10
2019-04-01T07:46:12.954Z,14.20
2019-04-01T07:48:41.755Z,14.30
2019-04-01T07:51:10.607Z,13.90
2019-04-01T07:53:39.573Z,14.20
2019-04-01T07:56:08.427Z,14.50
2019-04-01T07:58:37.369Z,14.40
2019-04-01T08:01:06.254Z,14.50
2019-04-01T08:03:35.346Z,14.10
2019-04-01T08:06:04.266Z,14.40
2019-04-01T08:08:33.131Z,15.30
2019-04-01T08:11:01.971Z,15.80
2019-04-01T08:13:30.845Z,15.30
2019-04-01T08:15:59.741Z,15.30
2019-04-01T08:18:28.612Z,16.00
2019-04-01T08:21:16.888Z,15.80
2019-04-01T08:23:46.239Z,15.50
2019-04-01T08:26:15.576Z,15.50
2019-04-01T08:28:44.341Z,16.00
2019-04-01T08:31:13.600Z,16.20
2019-04-01T08:33:42.370Z,15.80
2019-04-01T08:36:11.195Z,15.70
2019-04-01T08:38:40.020Z,16.30
2019-04-01T08:41:08.860Z,15.60
2019-04-01T08:43:38.117Z,14.80
2019-04-01T08:46:06.931Z,14.20
2019-04-01T08:48:35.925Z,13.90
2019-04-01T08:51:05.138Z,14.60
2019-04-01T08:53:34.455Z,15.20
2019-04-01T08:56:03.657Z,16.20
2019-04-01T08:58:32.510Z,16.40
2019-04-01T09:01:01.560Z,14.90
2019-04-01T09:03:30.875Z,15.40
2019-04-01T09:06:00.019Z,15.40
2019-04-01T09:08:29.414Z,15.40
2019-04-01T09:10:58.863Z,15.60
2019-04-01T09:13:28.114Z,16.20
2019-04-01T09:15:57.744Z,16.00
2019-04-01T09:18:26.542Z,16.60
2019-04-01T09:20:55.331Z,16.50
2019-04-01T09:23:24.188Z,16.00
2019-04-01T09:25:53.443Z,15.30
2019-04-01T09:28:22.472Z,15.60
2019-04-01T09:30:51.711Z,15.70
2019-04-01T09:33:20.839Z,15.30
2019-04-01T09:35:49.948Z,15.20
2019-04-01T09:38:18.675Z,14.70
2019-04-01T09:40:47.485Z,14.40
2019-04-01T09:43:16.276Z,15.30
2019-04-01T09:45:45.207Z,15.30
2019-04-01T09:48:13.972Z,14.90
2019-04-01T09:50:43.047Z,14.50
2019-04-01T09:53:11.847Z,14.70
2019-04-01T09:55:40.655Z,14.90
2019-04-01T09:58:09.459Z,15.80
2019-04-01T10:00:38.227Z,16.10
2019-04-01T10:03:07.374Z,15.90
2019-04-01T10:05:36.208Z,15.70
2019-04-01T10:08:05.308Z,15.00
2019-04-01T10:10:34.259Z,15.30
2019-04-01T10:13:03.118Z,15.00
2019-04-01T10:15:31.918Z,14.60
2019-04-01T10:18:00.926Z,14.90
2019-04-01T10:20:29.843Z,14.60
2019-04-01T10:23:09.564Z,14.50
2019-04-01T10:25:39.735Z,14.30
2019-04-01T10:28:09.808Z,14.40
2019-04-01T10:30:39.858Z,14.10
2019-04-01T10:33:09.053Z,14.10
2019-04-01T10:35:38.159Z,14.20
2019-04-01T10:38:06.963Z,13.90
2019-04-01T10:40:35.836Z,14.10
2019-04-01T10:43:04.732Z,14.40
2019-04-01T10:45:33.985Z,14.50
2019-04-01T10:48:03.133Z,14.90
2019-04-01T10:50:31.999Z,14.60
2019-04-01T10:53:00.944Z,14.80
2019-04-01T10:55:30.075Z,15.60
2019-04-01T10:57:58.838Z,15.40
2019-04-01T11:00:27.799Z,15.60
2019-04-01T11:02:56.625Z,16.20
2019-04-01T11:05:25.578Z,15.70
2019-04-01T11:07:54.419Z,15.30
2019-04-01T11:10:23.556Z,15.10
2019-04-01T11:12:53.885Z,14.80
2019-04-01T11:15:22.874Z,14.40
2019-04-01T11:17:52.495Z,14.30
2019-04-01T11:20:21.712Z,14.50
2019-04-01T11:22:50.829Z,14.80
2019-04-01T11:25:19.944Z,14.60
2019-04-01T11:27:48.710Z,14.40
2019-04-01T11:30:17.621Z,14.30
2019-04-01T11:32:46.699Z,14.60
2019-04-01T11:35:17.104Z,14.70
2019-04-01T11:37:46.029Z,14.40
2019-04-01T11:40:15.244Z,14.20
2019-04-01T11:42:44.248Z,14.40
2019-04-01T11:45:13.516Z,14.60
2019-04-01T11:47:42.381Z,14.40
2019-04-01T11:50:11.710Z,14.90
2019-04-01T11:52:40.995Z,15.30
2019-04-01T11:55:10.291Z,15.20
2019-04-01T11:57:40.548Z,14.70
2019-04-01T12:00:13.834Z,14.60
2019-04-01T12:02:42.605Z,14.70
2019-04-01T12:05:11.624Z,14.40
2019-04-01T12:07:40.452Z,14.00
2019-04-01T12:10:09.578Z,13.90
2019-04-01T12:12:38.509Z,13.80
2019-04-01T12:15:11.731Z,14.00
2019-04-01T12:17:41.572Z,13.60
2019-04-01T12:20:09.897Z,13.90
2019-04-01T12:22:40.599Z,14.00
2019-04-01T12:25:09.747Z,14.10
2019-04-01T12:27:38.615Z,14.00
2019-04-01T12:30:07.647Z,14.00
2019-04-01T12:32:36.736Z,14.40
2019-04-01T12:35:06.081Z,14.20
2019-04-01T12:37:35.132Z,14.20
2019-04-01T12:40:04.107Z,14.20
2019-04-01T12:42:32.851Z,13.90
2019-04-01T12:45:01.668Z,14.00
2019-04-01T12:47:30.411Z,14.50
2019-04-01T12:49:59.232Z,14.90
2019-04-01T12:52:28.070Z,14.80
2019-04-01T12:55:00.678Z,15.10
2019-04-01T12:57:27.903Z,14.50
2019-04-01T12:59:56.730Z,15.10
2019-04-01T13:02:25.480Z,15.40
2019-04-01T13:04:54.256Z,15.20
2019-04-01T13:07:23.554Z,15.10
2019-04-01T13:09:52.312Z,14.90
2019-04-01T13:12:21.350Z,15.20
2019-04-01T13:14:50.636Z,15.60
2019-04-01T13:17:20.975Z,15.70
2019-04-01T13:19:49.956Z,15.20
2019-04-01T13:22:19.040Z,15.10
2019-04-01T13:24:48.157Z,15.40
2019-04-01T13:27:16.955Z,14.90
2019-04-01T13:29:45.737Z,14.20
2019-04-01T13:32:14.450Z,14.30
2019-04-01T13:34:43.419Z,13.90
2019-04-01T13:37:12.471Z,13.80
2019-04-01T13:39:41.296Z,14.90
2019-04-01T13:42:10.524Z,14.60
2019-04-01T13:44:39.344Z,14.20
2019-04-01T13:47:08.096Z,14.30
2019-04-01T13:49:37.461Z,14.20
2019-04-01T13:52:06.666Z,13.80
2019-04-01T13:54:35.659Z,14.70
2019-04-01T13:57:04.503Z,15.20
2019-04-01T13:59:48.112Z,14.40
2019-04-01T14:02:04.105Z,14.00
2019-04-01T14:04:32.859Z,14.10
2019-04-01T14:07:01.656Z,14.30
2019-04-01T14:09:30.974Z,14.20
2019-04-01T14:12:00.356Z,13.80
2019-04-01T14:14:29.336Z,13.90
2019-04-01T14:16:58.101Z,13.80
2019-04-01T14:19:26.909Z,13.50
2019-04-01T14:21:55.827Z,13.10
2019-04-01T14:24:25.001Z,13.30
2019-04-01T14:26:56.557Z,13.00
2019-04-01T14:29:25.112Z,12.70
2019-04-01T14:31:54.164Z,12.60
2019-04-01T14:34:23.860Z,12.60
2019-04-01T14:36:52.797Z,12.20
2019-04-01T14:39:21.832Z,11.90
2019-04-01T14:41:50.905Z,11.90
2019-04-01T14:44:20.290Z,11.50
2019-04-01T14:46:49.292Z,11.30
2019-04-01T14:49:18.441Z,11.20
2019-04-01T14:51:47.620Z,11.20
2019-04-01T14:54:16.589Z,11.20
2019-04-01T14:56:45.685Z,11.00
2019-04-01T14:59:14.821Z,11.00
2019-04-01T15:01:43.653Z,11.00
2019-04-01T15:04:12.931Z,11.00
2019-04-01T15:06:41.912Z,11.10
2019-04-01T15:09:10.963Z,11.20
2019-04-01T15:11:40.065Z,11.00
2019-04-01T15:14:09.040Z,11.00
2019-04-01T15:16:38.285Z,11.10
2019-04-01T15:19:07.211Z,11.00
2019-04-01T15:21:36.205Z,11.00
2019-04-01T15:24:05.336Z,11.00
2019-04-01T15:26:34.520Z,10.80
2019-04-01T15:29:03.413Z,10.80
2019-04-01T15:31:32.748Z,10.90
2019-04-01T15:34:01.655Z,10.80
2019-04-01T15:36:30.543Z,10.80
2019-04-01T15:38:59.643Z,10.70
2019-04-01T15:41:28.539Z,10.70
2019-04-01T15:43:57.424Z,10.60
2019-04-01T15:46:27.003Z,10.60
2019-04-01T15:48:55.793Z,10.50
2019-04-01T15:51:25.017Z,10.60
2019-04-01T15:53:54.201Z,10.60
2019-04-01T15:56:23.431Z,10.60
2019-04-01T15:58:52.335Z,10.50
2019-04-01T16:01:21.249Z,10.50
2019-04-01T16:03:50.154Z,10.60
2019-04-01T16:06:19.324Z,10.50
2019-04-01T16:08:48.160Z,10.50
2019-04-01T16:11:18.161Z,10.40
2019-04-01T16:13:47.903Z,10.30
2019-04-01T16:16:16.947Z,10.30
2019-04-01T16:18:45.858Z,10.30
2019-04-01T16:21:14.816Z,10.30
2019-04-01T16:23:43.973Z,10.30
2019-04-01T16:26:13.253Z,10.30
2019-04-01T16:28:42.164Z,10.20
2019-04-01T16:31:11.355Z,10.20
2019-04-01T16:33:40.556Z,10.20
2019-04-01T16:36:09.730Z,10.10
2019-04-01T16:38:38.786Z,10.20
2019-04-01T16:41:11.024Z,10.10
2019-04-01T16:43:39.960Z,10.10
2019-04-01T16:46:08.899Z,10.00
2019-04-01T16:48:38.424Z,10.00
2019-04-01T16:51:07.667Z,10.00
2019-04-01T16:53:36.726Z,9.90
2019-04-01T16:56:05.627Z,9.80
2019-04-01T16:58:34.659Z,9.70
2019-04-01T17:01:03.638Z,9.70
2019-04-01T17:03:32.593Z,9.70
2019-04-01T17:06:01.617Z,9.70
2019-04-01T17:08:30.610Z,9.60
2019-04-01T17:10:59.860Z,9.50
2019-04-01T17:13:28.824Z,9.50
2019-04-01T17:16:01.376Z,9.40
2019-04-01T17:18:29.147Z,9.40
2019-04-01T17:20:58.492Z,9.40
2019-04-01T17:23:28.308Z,9.30
2019-04-01T17:25:57.350Z,9.20
2019-04-01T17:28:26.528Z,9.20
2019-04-01T17:30:55.994Z,9.10
2019-04-01T17:33:25.351Z,9.10
2019-04-01T17:35:54.300Z,9.00
2019-04-01T17:38:23.324Z,8.90
2019-04-01T17:40:52.208Z,8.90
2019-04-01T17:43:23.091Z,8.90
2019-04-01T17:45:51.823Z,8.80
2019-04-01T17:48:20.700Z,8.80
2019-04-01T17:50:49.757Z,8.70
2019-04-01T17:53:18.698Z,8.70
2019-04-01T17:55:48.482Z,8.60
2019-04-01T17:58:17.572Z,8.60
2019-04-01T18:00:51.620Z,8.50
2019-04-01T18:03:20.894Z,8.50
2019-04-01T18:05:52.744Z,8.50
2019-04-01T18:08:21.732Z,8.40
2019-04-01T18:10:50.525Z,8.40
2019-04-01T18:13:19.497Z,8.30
2019-04-01T18:15:48.428Z,8.30
2019-04-01T18:18:26.670Z,8.30
2019-04-01T18:20:48.637Z,8.20
2019-04-01T18:23:17.686Z,8.20
2019-04-01T18:25:46.738Z,8.10
2019-04-01T18:28:16.000Z,8.10
2019-04-01T18:30:45.481Z,8.10
2019-04-01T18:33:14.461Z,8.00
2019-04-01T18:35:44.929Z,8.00
2019-04-01T18:38:13.879Z,7.90
2019-04-01T18:40:42.652Z,7.90
2019-04-01T18:43:14.088Z,7.90
2019-04-01T18:45:45.276Z,7.90
2019-04-01T18:48:15.067Z,7.90
2019-04-01T18:50:44.437Z,7.80
2019-04-01T18:53:13.576Z,7.80
2019-04-01T18:55:42.946Z,7.70
2019-04-01T18:58:12.297Z,7.70
2019-04-01T19:00:43.061Z,7.70
2019-04-01T19:03:12.072Z,7.70
2019-04-01T19:05:42.533Z,7.60
2019-04-01T19:08:13.111Z,7.60
2019-04-01T19:10:42.349Z,7.50
2019-04-01T19:13:12.737Z,7.50
2019-04-01T19:15:43.786Z,7.40
2019-04-01T19:18:15.296Z,7.40
2019-04-01T19:20:55.720Z,7.40
2019-04-01T19:23:15.433Z,7.30
2019-04-01T19:25:44.263Z,7.30
2019-04-01T19:28:13.104Z,7.30
2019-04-01T19:30:43.173Z,7.20
2019-04-01T19:33:12.429Z,7.20
2019-04-01T19:35:41.276Z,7.20
2019-04-01T19:38:10.674Z,7.20
2019-04-01T19:40:39.510Z,7.10
2019-04-01T19:43:08.396Z,7.10
2019-04-01T19:45:37.252Z,7.10
2019-04-01T19:48:06.195Z,7.00
2019-04-01T19:50:35.050Z,7.00
2019-04-01T19:53:04.059Z,7.00
2019-04-01T19:55:35.101Z,7.00
2019-04-01T19:58:05.240Z,6.90
2019-04-01T20:00:34.492Z,6.80
2019-04-01T20:03:03.344Z,6.80
2019-04-01T20:05:32.306Z,6.80
2019-04-01T20:08:01.233Z,6.70
2019-04-01T20:10:30.309Z,6.70
2019-04-01T20:12:59.173Z,6.70
2019-04-01T20:15:28.233Z,6.70
2019-04-01T20:17:57.148Z,6.60
2019-04-01T20:20:25.985Z,6.60
2019-04-01T20:23:14.220Z,6.60
2019-04-01T20:25:43.173Z,6.50
2019-04-01T20:28:12.944Z,6.50
2019-04-01T20:30:42.649Z,6.50
2019-04-01T20:33:18.021Z,6.40
2019-04-01T20:35:42.257Z,6.40
2019-04-01T20:38:11.054Z,6.40
2019-04-01T20:40:40.110Z,6.30
2019-04-01T20:43:08.953Z,6.20
2019-04-01T20:45:37.745Z,6.20
2019-04-01T20:48:06.490Z,6.20
2019-04-01T20:50:35.279Z,6.10
2019-04-01T20:53:04.099Z,6.10
2019-04-01T20:55:32.855Z,6.00
2019-04-01T20:58:01.616Z,6.00
2019-04-01T21:00:30.402Z,6.00
2019-04-01T21:02:59.292Z,5.90
2019-04-01T21:05:28.123Z,5.90
2019-04-01T21:07:56.885Z,5.90
2019-04-01T21:10:25.745Z,5.80
2019-04-01T21:12:54.719Z,5.80
2019-04-01T21:15:23.519Z,5.80
2019-04-01T21:17:52.543Z,5.80
2019-04-01T21:20:21.285Z,5.70
2019-04-01T21:22:50.066Z,5.70
2019-04-01T21:25:18.835Z,5.60
2019-04-01T21:27:47.605Z,5.60
2019-04-01T21:30:16.693Z,5.50
2019-04-01T21:32:45.844Z,5.50
2019-04-01T21:35:14.884Z,5.50
2019-04-01T21:37:43.879Z,5.50
2019-04-01T21:40:13.004Z,5.40
2019-04-01T21:42:43.166Z,5.30
2019-04-01T21:45:12.768Z,5.30
2019-04-01T21:47:41.697Z,5.40
2019-04-01T21:50:11.009Z,5.40
2019-04-01T21:52:40.035Z,5.30
2019-04-01T21:55:09.147Z,5.30
2019-04-01T21:57:37.909Z,5.20
2019-04-01T22:00:08.448Z,5.20
2019-04-01T22:02:37.332Z,5.10
2019-04-01T22:05:06.449Z,5.00
2019-04-01T22:07:35.190Z,5.00
2019-04-01T22:10:04.456Z,5.00
2019-04-01T22:12:33.242Z,5.00
2019-04-01T22:15:02.125Z,5.00
2019-04-01T22:17:31.040Z,4.90
2019-04-01T22:19:59.828Z,4.90
2019-04-01T22:22:28.564Z,4.80
2019-04-01T22:24:57.378Z,4.80
2019-04-01T22:27:26.123Z,4.80
2019-04-01T22:29:54.850Z,4.70
2019-04-01T22:32:23.843Z,4.70
2019-04-01T22:34:52.591Z,4.70
2019-04-01T22:37:27.111Z,4.70
2019-04-01T22:39:51.842Z,4.70
2019-04-01T22:42:20.586Z,4.60
2019-04-01T22:44:49.584Z,4.50
2019-04-01T22:47:18.352Z,4.50
2019-04-01T22:49:47.152Z,4.50
2019-04-01T22:52:15.928Z,4.50
2019-04-01T22:54:44.688Z,4.50
2019-04-01T22:57:13.686Z,4.40
2019-04-01T22:59:42.452Z,4.40
2019-04-01T23:02:13.290Z,4.40
2019-04-01T23:04:41.744Z,4.40
2019-04-01T23:07:10.512Z,4.40
2019-04-01T23:09:39.363Z,4.30
2019-04-01T23:12:08.099Z,4.20
2019-04-01T23:14:37.118Z,4.20
2019-04-01T23:17:05.963Z,4.20
2019-04-01T23:19:35.057Z,4.10
2019-04-01T23:22:04.640Z,4.10
2019-04-01T23:24:33.539Z,4.10
2019-04-01T23:27:02.278Z,4.10
2019-04-01T23:29:31.072Z,4.00
2019-04-01T23:32:00.093Z,4.10
2019-04-01T23:34:28.826Z,4.10
2019-04-01T23:36:57.597Z,4.10
2019-04-01T23:39:26.623Z,4.10
2019-04-01T23:41:55.631Z,4.10
2019-04-01T23:44:24.617Z,4.10
2019-04-01T23:46:53.688Z,4.00
2019-04-01T23:49:22.428Z,4.00
2019-04-01T23:51:51.193Z,4.00
2019-04-01T23:54:19.985Z,4.00
2019-04-01T23:56:49.065Z,4.00
2019-04-01T23:59:17.878Z,4.00
